createdAt,value
2019-03-25T00:01:20.282Z,21.24
2019-03-25T00:03:48.648Z,21.25
2019-03-25T00:06:17.180Z,21.23
2019-03-25T00:08:45.542Z,21.22
2019-03-25T00:11:13.920Z,21.22
2019-03-25T00:13:42.297Z,21.22
2019-03-25T00:16:10.736Z,21.20
2019-03-25T00:18:39.096Z,21.20
2019-03-25T00:21:07.469Z,21.19
2019-03-25T00:23:35.837Z,21.18
2019-03-25T00:26:04.215Z,21.17
2019-03-25T00:28:32.577Z,21.17
2019-03-25T00:31:01.024Z,21.17
2019-03-25T00:33:29.389Z,21.15
2019-03-25T00:35:57.760Z,21.15
2019-03-25T00:38:26.127Z,21.14
2019-03-25T00:40:54.505Z,21.13
2019-03-25T00:43:23.357Z,21.13
2019-03-25T00:45:51.721Z,21.12
2019-03-25T00:48:20.093Z,21.10
2019-03-25T00:50:48.528Z,21.11
2019-03-25T00:53:16.902Z,21.10
2019-03-25T00:55:45.265Z,21.09
2019-03-25T00:58:13.655Z,21.08
2019-03-25T01:00:42.200Z,21.08
2019-03-25T01:03:10.640Z,21.06
2019-03-25T01:05:39.076Z,21.06
2019-03-25T01:08:07.449Z,21.06
2019-03-25T01:10:38.907Z,21.04
2019-03-25T01:13:07.291Z,21.03
2019-03-25T01:15:35.721Z,21.03
2019-03-25T01:18:04.176Z,21.01
2019-03-25T01:20:32.542Z,21.01
2019-03-25T01:23:00.929Z,21.01
2019-03-25T01:25:29.298Z,21.00
2019-03-25T01:27:57.684Z,20.99
2019-03-25T01:30:26.060Z,20.99
2019-03-25T01:32:54.439Z,20.98
2019-03-25T01:35:23.830Z,20.98
2019-03-25T01:37:52.200Z,20.98
2019-03-25T01:40:20.565Z,20.98
2019-03-25T01:42:48.956Z,20.97
2019-03-25T01:45:17.313Z,20.96
2019-03-25T01:47:45.744Z,20.96
2019-03-25T01:50:14.137Z,20.96
2019-03-25T01:52:42.516Z,20.94
2019-03-25T01:55:13.638Z,20.94
2019-03-25T01:57:41.212Z,20.94
2019-03-25T02:00:09.911Z,20.93
2019-03-25T02:02:38.277Z,20.93
2019-03-25T02:05:07.131Z,20.92
2019-03-25T02:07:35.494Z,20.92
2019-03-25T02:10:07.984Z,20.92
2019-03-25T02:12:36.365Z,20.92
2019-03-25T02:15:05.605Z,20.89
2019-03-25T02:17:33.981Z,20.90
2019-03-25T02:20:02.438Z,20.90
2019-03-25T02:22:30.907Z,20.89
2019-03-25T02:24:59.285Z,20.89
2019-03-25T02:27:27.662Z,20.88
2019-03-25T02:29:56.055Z,20.88
2019-03-25T02:32:24.683Z,20.87
2019-03-25T02:34:53.065Z,20.88
2019-03-25T02:37:21.462Z,20.87
2019-03-25T02:39:49.843Z,20.87
2019-03-25T02:42:18.232Z,20.87
2019-03-25T02:44:46.621Z,20.86
2019-03-25T02:47:14.996Z,20.84
2019-03-25T02:49:43.381Z,20.86
2019-03-25T02:52:11.759Z,20.85
2019-03-25T02:54:40.144Z,20.85
2019-03-25T02:57:08.531Z,20.84
2019-03-25T02:59:36.932Z,20.85
2019-03-25T03:02:05.388Z,20.85
2019-03-25T03:04:33.788Z,20.85
2019-03-25T03:07:02.167Z,20.83
2019-03-25T03:09:30.570Z,20.83
2019-03-25T03:11:59.112Z,20.82
2019-03-25T03:14:27.503Z,20.81
2019-03-25T03:16:55.877Z,20.83
2019-03-25T03:19:24.841Z,20.83
2019-03-25T03:21:53.226Z,20.82
2019-03-25T03:24:21.622Z,20.81
2019-03-25T03:26:50.016Z,20.81
2019-03-25T03:29:18.403Z,20.82
2019-03-25T03:31:46.778Z,20.83
2019-03-25T03:34:15.153Z,20.83
2019-03-25T03:36:43.549Z,20.83
2019-03-25T03:39:11.934Z,20.82
2019-03-25T03:41:40.335Z,20.82
2019-03-25T03:44:08.698Z,20.82
2019-03-25T03:46:37.101Z,20.80
2019-03-25T03:49:05.471Z,20.78
2019-03-25T03:51:34.345Z,20.80
2019-03-25T03:54:02.706Z,20.80
2019-03-25T03:56:31.774Z,20.80
2019-03-25T03:59:02.673Z,20.80
2019-03-25T04:01:31.126Z,20.80
2019-03-25T04:03:59.493Z,20.79
2019-03-25T04:06:27.905Z,20.78
2019-03-25T04:08:56.275Z,20.79
2019-03-25T04:11:25.264Z,20.79
2019-03-25T04:13:53.637Z,20.79
2019-03-25T04:16:22.032Z,20.79
2019-03-25T04:18:50.416Z,20.80
2019-03-25T04:21:18.803Z,20.79
2019-03-25T04:23:47.193Z,20.80
2019-03-25T04:26:27.721Z,20.78
2019-03-25T04:28:45.690Z,20.79
2019-03-25T04:31:14.094Z,20.78
2019-03-25T04:33:42.480Z,20.78
2019-03-25T04:36:10.874Z,20.78
2019-03-25T04:38:39.267Z,20.80
2019-03-25T04:41:07.665Z,20.79
2019-03-25T04:43:36.058Z,20.78
2019-03-25T04:46:04.417Z,20.78
2019-03-25T04:48:32.814Z,20.78
2019-03-25T04:51:01.192Z,20.78
2019-03-25T04:53:29.578Z,20.78
2019-03-25T04:55:57.951Z,20.79
2019-03-25T04:58:26.336Z,20.78
2019-03-25T05:00:55.958Z,20.76
2019-03-25T05:03:24.422Z,20.77
2019-03-25T05:05:52.800Z,20.75
2019-03-25T05:08:21.186Z,20.75
2019-03-25T05:10:49.576Z,20.74
2019-03-25T05:13:17.956Z,20.75
2019-03-25T05:15:46.343Z,20.73
2019-03-25T05:18:14.725Z,20.74
2019-03-25T05:20:43.109Z,20.72
2019-03-25T05:23:11.567Z,20.74
2019-03-25T05:25:39.949Z,20.73
2019-03-25T05:28:08.574Z,20.73
2019-03-25T05:30:37.008Z,20.74
2019-03-25T05:33:05.409Z,20.74
2019-03-25T05:35:33.796Z,20.74
2019-03-25T05:38:02.207Z,20.76
2019-03-25T05:40:30.581Z,20.75
2019-03-25T05:42:58.964Z,20.76
2019-03-25T05:45:27.333Z,20.76
2019-03-25T05:47:56.198Z,20.76
2019-03-25T05:50:24.575Z,20.76
2019-03-25T05:52:52.977Z,20.76
2019-03-25T05:55:21.351Z,20.75
2019-03-25T05:57:49.731Z,20.76
2019-03-25T06:00:19.843Z,20.76
2019-03-25T06:02:48.221Z,20.76
2019-03-25T06:05:16.609Z,20.78
2019-03-25T06:07:45.002Z,20.77
2019-03-25T06:10:13.528Z,20.75
2019-03-25T06:12:42.570Z,20.78
2019-03-25T06:15:11.326Z,20.79
2019-03-25T06:17:39.698Z,20.78
2019-03-25T06:20:08.430Z,20.79
2019-03-25T06:22:36.815Z,20.78
2019-03-25T06:25:07.141Z,20.80
2019-03-25T06:27:35.513Z,20.80
2019-03-25T06:30:07.095Z,20.81
2019-03-25T06:32:35.470Z,20.75
2019-03-25T06:35:05.108Z,20.75
2019-03-25T06:37:33.472Z,20.80
2019-03-25T06:40:01.859Z,20.80
2019-03-25T06:42:30.268Z,20.78
2019-03-25T06:44:58.653Z,20.80
2019-03-25T06:47:27.024Z,20.80
2019-03-25T06:49:55.467Z,20.80
2019-03-25T06:52:23.877Z,20.82
2019-03-25T06:54:52.278Z,20.80
2019-03-25T06:57:25.396Z,20.80
2019-03-25T06:59:50.784Z,20.81
2019-03-25T07:02:19.162Z,20.82
2019-03-25T07:04:47.556Z,20.85
2019-03-25T07:07:15.932Z,20.93
2019-03-25T07:09:44.347Z,20.97
2019-03-25T07:12:12.889Z,20.96
2019-03-25T07:14:41.523Z,20.94
2019-03-25T07:17:09.904Z,20.92
2019-03-25T07:19:38.292Z,20.91
2019-03-25T07:22:06.677Z,20.94
2019-03-25T07:24:35.204Z,20.96
2019-03-25T07:27:03.581Z,20.99
2019-03-25T07:29:31.972Z,21.01
2019-03-25T07:32:00.359Z,21.07
2019-03-25T07:34:28.976Z,21.11
2019-03-25T07:36:57.348Z,21.07
2019-03-25T07:39:25.759Z,21.03
2019-03-25T07:41:54.138Z,21.02
2019-03-25T07:44:22.525Z,21.01
2019-03-25T07:46:50.924Z,21.03
2019-03-25T07:49:19.311Z,21.04
2019-03-25T07:51:47.711Z,21.02
2019-03-25T07:54:16.106Z,21.01
2019-03-25T07:56:44.511Z,21.02
2019-03-25T07:59:12.885Z,20.98
2019-03-25T08:01:41.288Z,20.98
2019-03-25T08:04:09.687Z,20.96
2019-03-25T08:06:38.119Z,20.96
2019-03-25T08:09:07.399Z,21.00
2019-03-25T08:11:35.758Z,21.02
2019-03-25T08:14:04.246Z,21.14
2019-03-25T08:16:32.606Z,21.12
2019-03-25T08:19:01.111Z,21.06
2019-03-25T08:21:29.671Z,21.07
2019-03-25T08:23:58.127Z,21.10
2019-03-25T08:26:27.518Z,21.15
2019-03-25T08:28:55.890Z,21.24
2019-03-25T08:31:24.287Z,21.27
2019-03-25T08:33:52.663Z,21.35
2019-03-25T08:36:21.091Z,21.49
2019-03-25T08:38:49.477Z,21.52
2019-03-25T08:41:17.883Z,21.49
2019-03-25T08:43:46.271Z,21.48
2019-03-25T08:46:14.752Z,21.48
2019-03-25T08:48:43.210Z,21.50
2019-03-25T08:51:11.586Z,21.58
2019-03-25T08:53:39.974Z,21.60
2019-03-25T08:56:08.422Z,21.56
2019-03-25T08:58:36.805Z,21.54
2019-03-25T09:01:05.185Z,21.48
2019-03-25T09:03:33.585Z,21.45
2019-03-25T09:06:01.966Z,21.46
2019-03-25T09:08:30.354Z,21.42
2019-03-25T09:10:58.730Z,21.43
2019-03-25T09:13:27.909Z,21.44
2019-03-25T09:15:56.509Z,21.49
2019-03-25T09:18:24.873Z,21.45
2019-03-25T09:20:53.250Z,21.38
2019-03-25T09:23:21.810Z,21.35
2019-03-25T09:25:50.267Z,21.32
2019-03-25T09:28:24.143Z,21.30
2019-03-25T09:30:54.807Z,21.27
2019-03-25T09:33:23.528Z,21.27
2019-03-25T09:35:52.020Z,21.24
2019-03-25T09:38:20.441Z,21.20
2019-03-25T09:40:48.832Z,21.19
2019-03-25T09:43:17.297Z,21.20
2019-03-25T09:45:45.760Z,21.24
2019-03-25T09:48:14.163Z,21.32
2019-03-25T09:50:42.542Z,21.54
2019-03-25T09:53:10.940Z,21.66
2019-03-25T09:55:39.321Z,21.67
2019-03-25T09:58:07.710Z,21.78
2019-03-25T10:00:36.118Z,21.86
2019-03-25T10:03:04.574Z,22.00
2019-03-25T10:05:32.962Z,22.10
2019-03-25T10:08:01.366Z,22.26
2019-03-25T10:10:29.749Z,22.16
2019-03-25T10:12:58.466Z,22.00
2019-03-25T10:15:26.865Z,21.90
2019-03-25T10:17:55.251Z,21.81
2019-03-25T10:20:23.637Z,21.70
2019-03-25T10:22:52.033Z,21.62
2019-03-25T10:25:20.432Z,21.55
2019-03-25T10:27:48.809Z,21.52
2019-03-25T10:30:17.730Z,21.49
2019-03-25T10:32:46.120Z,21.48
2019-03-25T10:35:14.848Z,21.51
2019-03-25T10:37:43.310Z,21.51
2019-03-25T10:40:11.849Z,21.58
2019-03-25T10:42:40.239Z,21.54
2019-03-25T10:45:09.658Z,22.88
2019-03-25T10:47:38.044Z,24.59
2019-03-25T10:50:07.678Z,25.91
2019-03-25T10:52:36.061Z,26.94
2019-03-25T10:55:07.727Z,27.87
2019-03-25T10:57:35.778Z,28.75
2019-03-25T11:00:09.857Z,29.51
2019-03-25T11:02:38.313Z,27.91
2019-03-25T11:05:08.233Z,25.79
2019-03-25T11:07:36.668Z,24.58
2019-03-25T11:10:08.739Z,23.86
2019-03-25T11:12:37.122Z,23.42
2019-03-25T11:15:09.273Z,25.96
2019-03-25T11:17:37.926Z,29.17
2019-03-25T11:20:09.009Z,30.86
2019-03-25T11:22:37.458Z,31.76
2019-03-25T11:25:06.607Z,32.30
2019-03-25T11:27:34.974Z,32.61
2019-03-25T11:30:05.709Z,31.46
2019-03-25T11:32:34.191Z,31.32
2019-03-25T11:35:02.595Z,32.45
2019-03-25T11:37:30.966Z,33.02
2019-03-25T11:39:59.408Z,30.71
2019-03-25T11:42:27.787Z,27.99
2019-03-25T11:44:56.173Z,26.29
2019-03-25T11:47:24.567Z,25.27
2019-03-25T11:49:53.061Z,24.66
2019-03-25T11:52:21.410Z,24.25
2019-03-25T11:54:49.806Z,24.29
2019-03-25T11:57:18.208Z,25.59
2019-03-25T11:59:46.575Z,28.29
2019-03-25T12:02:17.826Z,29.97
2019-03-25T12:04:45.078Z,30.72
2019-03-25T12:07:13.473Z,31.02
2019-03-25T12:09:41.850Z,31.08
2019-03-25T12:12:10.241Z,30.95
2019-03-25T12:14:38.611Z,30.66
2019-03-25T12:17:06.997Z,28.74
2019-03-25T12:19:35.377Z,27.13
2019-03-25T12:22:03.759Z,26.02
2019-03-25T12:24:32.147Z,26.74
2019-03-25T12:27:00.545Z,27.27
2019-03-25T12:29:30.619Z,27.25
2019-03-25T12:31:59.547Z,26.99
2019-03-25T12:34:28.027Z,26.54
2019-03-25T12:36:56.385Z,25.98
2019-03-25T12:39:24.769Z,25.53
2019-03-25T12:41:53.276Z,25.09
2019-03-25T12:44:21.665Z,24.74
2019-03-25T12:46:50.043Z,24.47
2019-03-25T12:49:18.421Z,24.21
2019-03-25T12:51:48.432Z,24.11
2019-03-25T12:54:16.964Z,24.06
2019-03-25T12:56:45.356Z,23.97
2019-03-25T12:59:13.746Z,23.90
2019-03-25T13:01:52.543Z,23.87
2019-03-25T13:04:12.216Z,23.69
2019-03-25T13:06:40.618Z,23.53
2019-03-25T13:09:09.076Z,23.41
2019-03-25T13:11:37.511Z,23.32
2019-03-25T13:14:06.927Z,23.25
2019-03-25T13:16:35.342Z,23.22
2019-03-25T13:19:03.713Z,23.22
2019-03-25T13:21:32.097Z,23.25
2019-03-25T13:24:00.467Z,23.21
2019-03-25T13:26:28.853Z,23.13
2019-03-25T13:29:01.899Z,23.08
2019-03-25T13:31:27.351Z,23.06
2019-03-25T13:33:55.738Z,23.04
2019-03-25T13:36:24.127Z,23.06
2019-03-25T13:38:52.507Z,23.04
2019-03-25T13:41:20.899Z,23.05
2019-03-25T13:43:49.284Z,23.07
2019-03-25T13:46:17.674Z,23.09
2019-03-25T13:48:46.055Z,23.09
2019-03-25T13:51:14.433Z,23.08
2019-03-25T13:53:42.830Z,22.98
2019-03-25T13:56:11.219Z,22.87
2019-03-25T13:58:39.613Z,22.80
2019-03-25T14:01:08.002Z,22.81
2019-03-25T14:03:36.389Z,22.93
2019-03-25T14:06:05.046Z,22.99
2019-03-25T14:08:33.430Z,22.95
2019-03-25T14:11:01.816Z,22.86
2019-03-25T14:13:30.405Z,22.80
2019-03-25T14:15:58.828Z,22.73
2019-03-25T14:18:27.267Z,22.66
2019-03-25T14:20:55.635Z,22.59
2019-03-25T14:23:24.091Z,22.53
2019-03-25T14:25:52.482Z,22.50
2019-03-25T14:28:20.852Z,22.47
2019-03-25T14:30:49.247Z,22.47
2019-03-25T14:33:17.617Z,22.58
2019-03-25T14:35:46.014Z,22.63
2019-03-25T14:38:14.388Z,22.66
2019-03-25T14:40:42.779Z,22.62
2019-03-25T14:43:11.158Z,22.61
2019-03-25T14:45:39.549Z,22.60
2019-03-25T14:48:07.970Z,22.53
2019-03-25T14:50:36.316Z,22.51
2019-03-25T14:53:04.689Z,22.53
2019-03-25T14:55:33.101Z,22.51
2019-03-25T14:58:01.477Z,22.47
2019-03-25T15:00:30.775Z,22.41
2019-03-25T15:02:59.144Z,22.36
2019-03-25T15:05:27.529Z,22.32
2019-03-25T15:07:55.902Z,22.25
2019-03-25T15:10:24.303Z,22.22
2019-03-25T15:12:52.693Z,22.19
2019-03-25T15:15:21.080Z,22.16
2019-03-25T15:17:49.473Z,22.15
2019-03-25T15:20:17.931Z,22.14
2019-03-25T15:22:46.316Z,22.10
2019-03-25T15:25:14.782Z,22.08
2019-03-25T15:27:43.239Z,22.05
2019-03-25T15:30:12.289Z,22.01
2019-03-25T15:32:40.671Z,21.98
2019-03-25T15:35:09.192Z,21.94
2019-03-25T15:37:37.588Z,21.93
2019-03-25T15:40:10.495Z,21.91
2019-03-25T15:42:38.868Z,21.89
2019-03-25T15:45:09.386Z,21.89
2019-03-25T15:47:38.162Z,21.88
2019-03-25T15:50:11.362Z,21.86
2019-03-25T15:52:39.820Z,21.86
2019-03-25T15:55:08.435Z,21.85
2019-03-25T15:57:39.454Z,21.85
2019-03-25T16:00:13.516Z,21.81
2019-03-25T16:02:41.969Z,21.80
2019-03-25T16:05:10.576Z,21.82
2019-03-25T16:07:39.957Z,21.84
2019-03-25T16:10:09.178Z,21.86
2019-03-25T16:12:37.579Z,21.88
2019-03-25T16:15:09.632Z,21.92
2019-03-25T16:17:38.025Z,21.97
2019-03-25T16:20:08.014Z,22.02
2019-03-25T16:22:36.407Z,21.97
2019-03-25T16:25:08.103Z,21.89
2019-03-25T16:27:36.484Z,21.84
2019-03-25T16:30:08.718Z,21.83
2019-03-25T16:32:37.113Z,21.82
2019-03-25T16:35:06.769Z,21.81
2019-03-25T16:37:35.166Z,21.80
2019-03-25T16:40:04.232Z,21.78
2019-03-25T16:42:32.634Z,21.76
2019-03-25T16:45:01.603Z,21.72
2019-03-25T16:47:29.991Z,21.69
2019-03-25T16:49:58.366Z,21.65
2019-03-25T16:52:26.779Z,21.67
2019-03-25T16:54:55.207Z,21.69
2019-03-25T16:57:23.593Z,21.70
2019-03-25T16:59:51.983Z,21.67
2019-03-25T17:02:20.412Z,21.67
2019-03-25T17:04:48.811Z,21.66
2019-03-25T17:07:17.206Z,21.62
2019-03-25T17:09:45.604Z,21.60
2019-03-25T17:12:14.024Z,21.57
2019-03-25T17:14:42.448Z,21.56
2019-03-25T17:17:10.860Z,21.54
2019-03-25T17:19:39.284Z,21.52
2019-03-25T17:22:07.704Z,21.52
2019-03-25T17:24:36.106Z,21.55
2019-03-25T17:27:04.592Z,21.53
2019-03-25T17:29:33.010Z,21.50
2019-03-25T17:32:01.999Z,21.47
2019-03-25T17:34:30.407Z,21.47
2019-03-25T17:36:58.832Z,21.44
2019-03-25T17:39:27.245Z,21.41
2019-03-25T17:41:55.750Z,21.43
2019-03-25T17:44:24.230Z,21.44
2019-03-25T17:46:52.630Z,21.43
2019-03-25T17:49:21.071Z,21.44
2019-03-25T17:51:49.502Z,21.41
2019-03-25T17:54:17.940Z,21.38
2019-03-25T17:56:46.355Z,21.38
2019-03-25T17:59:14.804Z,21.37
2019-03-25T18:01:43.229Z,21.33
2019-03-25T18:04:11.773Z,21.33
2019-03-25T18:06:40.185Z,21.31
2019-03-25T18:09:08.663Z,21.30
2019-03-25T18:11:37.069Z,21.30
2019-03-25T18:14:05.451Z,21.33
2019-03-25T18:16:33.843Z,21.32
2019-03-25T18:19:02.371Z,21.31
2019-03-25T18:21:30.769Z,21.32
2019-03-25T18:23:59.157Z,21.34
2019-03-25T18:26:27.542Z,21.34
2019-03-25T18:28:55.932Z,21.35
2019-03-25T18:31:24.387Z,21.36
2019-03-25T18:33:52.811Z,21.37
2019-03-25T18:36:21.175Z,21.36
2019-03-25T18:38:49.575Z,21.35
2019-03-25T18:41:18.023Z,21.34
2019-03-25T18:43:46.427Z,21.32
2019-03-25T18:46:15.090Z,21.33
2019-03-25T18:48:43.536Z,21.32
2019-03-25T18:51:11.932Z,21.31
2019-03-25T18:53:40.370Z,21.32
2019-03-25T18:56:08.853Z,21.30
2019-03-25T18:58:37.676Z,21.29
2019-03-25T19:01:06.076Z,21.27
2019-03-25T19:03:34.694Z,21.28
2019-03-25T19:06:03.154Z,21.24
2019-03-25T19:08:31.725Z,21.22
2019-03-25T19:11:00.084Z,21.23
2019-03-25T19:13:28.462Z,21.21
2019-03-25T19:15:56.860Z,21.21
2019-03-25T19:18:25.223Z,21.20
2019-03-25T19:20:53.633Z,21.18
2019-03-25T19:23:22.008Z,21.19
2019-03-25T19:25:50.385Z,21.20
2019-03-25T19:28:18.805Z,21.24
2019-03-25T19:30:47.164Z,21.24
2019-03-25T19:33:15.559Z,21.25
2019-03-25T19:35:43.944Z,21.22
2019-03-25T19:38:12.372Z,21.17
2019-03-25T19:40:40.725Z,21.14
2019-03-25T19:43:09.155Z,21.10
2019-03-25T19:45:37.511Z,21.10
2019-03-25T19:48:05.899Z,21.11
2019-03-25T19:50:34.339Z,21.10
2019-03-25T19:53:03.724Z,21.10
2019-03-25T19:55:32.105Z,21.09
2019-03-25T19:58:00.520Z,21.08
2019-03-25T20:00:39.635Z,21.08
2019-03-25T20:03:08.005Z,21.07
2019-03-25T20:05:36.547Z,21.06
2019-03-25T20:08:05.273Z,21.05
2019-03-25T20:10:35.256Z,21.05
2019-03-25T20:13:03.892Z,21.03
2019-03-25T20:15:44.908Z,21.04
2019-03-25T20:18:02.419Z,21.03
2019-03-25T20:20:30.818Z,21.02
2019-03-25T20:22:59.201Z,21.05
2019-03-25T20:25:27.589Z,21.02
2019-03-25T20:27:55.982Z,21.02
2019-03-25T20:30:24.799Z,21.01
2019-03-25T20:32:53.217Z,21.00
2019-03-25T20:35:21.593Z,20.98
2019-03-25T20:37:49.999Z,20.99
2019-03-25T20:40:18.381Z,20.97
2019-03-25T20:42:46.795Z,20.96
2019-03-25T20:45:18.223Z,20.96
2019-03-25T20:47:45.419Z,20.96
2019-03-25T20:50:13.817Z,20.95
2019-03-25T20:52:42.226Z,20.95
2019-03-25T20:55:10.657Z,20.94
2019-03-25T20:57:40.561Z,20.95
2019-03-25T21:00:10.237Z,20.94
2019-03-25T21:02:44.788Z,20.96
2019-03-25T21:05:08.898Z,20.94
2019-03-25T21:07:37.361Z,20.93
2019-03-25T21:10:08.564Z,20.93
2019-03-25T21:12:38.577Z,20.91
2019-03-25T21:15:08.807Z,20.89
2019-03-25T21:17:37.169Z,20.89
2019-03-25T21:20:07.683Z,20.89
2019-03-25T21:22:36.192Z,20.88
2019-03-25T21:25:06.398Z,20.87
2019-03-25T21:27:34.759Z,20.87
2019-03-25T21:30:05.483Z,20.88
2019-03-25T21:32:34.168Z,20.88
2019-03-25T21:35:02.659Z,21.12
2019-03-25T21:37:31.169Z,21.13
2019-03-25T21:39:59.533Z,21.05
2019-03-25T21:42:29.277Z,21.01
2019-03-25T21:44:57.802Z,20.94
2019-03-25T21:47:26.203Z,20.92
2019-03-25T21:49:54.590Z,20.90
2019-03-25T21:52:23.008Z,20.87
2019-03-25T21:54:51.444Z,20.85
2019-03-25T21:57:19.808Z,20.84
2019-03-25T21:59:48.145Z,20.84
2019-03-25T22:02:16.531Z,20.84
2019-03-25T22:04:44.918Z,20.84
2019-03-25T22:07:13.308Z,20.85
2019-03-25T22:09:41.708Z,20.87
2019-03-25T22:12:10.098Z,20.85
2019-03-25T22:14:38.505Z,20.85
2019-03-25T22:17:06.893Z,20.84
2019-03-25T22:19:35.283Z,20.85
2019-03-25T22:22:04.426Z,20.84
2019-03-25T22:24:32.806Z,20.85
2019-03-25T22:27:01.409Z,20.85
2019-03-25T22:29:29.804Z,20.84
2019-03-25T22:31:58.176Z,20.83
2019-03-25T22:34:26.584Z,20.84
2019-03-25T22:36:54.960Z,20.87
2019-03-25T22:39:23.344Z,20.86
2019-03-25T22:41:51.725Z,20.86
2019-03-25T22:44:20.119Z,20.86
2019-03-25T22:46:48.493Z,20.86
2019-03-25T22:49:16.883Z,20.87
2019-03-25T22:51:45.264Z,20.87
2019-03-25T22:54:13.666Z,20.87
2019-03-25T22:56:42.044Z,20.85
2019-03-25T22:59:10.435Z,20.85
2019-03-25T23:01:39.063Z,20.86
2019-03-25T23:04:07.468Z,20.86
2019-03-25T23:06:35.879Z,20.85
2019-03-25T23:09:07.585Z,20.86
2019-03-25T23:11:36.208Z,20.87
2019-03-25T23:14:04.945Z,20.87
2019-03-25T23:16:33.349Z,20.86
2019-03-25T23:19:01.738Z,20.87
2019-03-25T23:21:30.130Z,20.88
2019-03-25T23:23:58.530Z,20.88
2019-03-25T23:26:26.921Z,20.86
2019-03-25T23:28:55.307Z,20.85
2019-03-25T23:31:23.692Z,20.85
2019-03-25T23:33:52.776Z,20.83
2019-03-25T23:36:21.156Z,20.82
2019-03-25T23:38:49.525Z,20.81
2019-03-25T23:41:17.935Z,20.81
2019-03-25T23:43:46.324Z,20.80
2019-03-25T23:46:14.724Z,20.78
2019-03-25T23:48:43.133Z,20.78
2019-03-25T23:51:11.535Z,20.76
2019-03-25T23:53:39.919Z,20.77
2019-03-25T23:56:08.305Z,20.77
2019-03-25T23:58:36.679Z,20.77
